x

Fred Howard Park, Fl (fhpf1) Weather Station

1:54am - Thu 22nd Jun 2017 All times are EDT. -4 hours from GMT.

  • Wind
    8mph, 11mph gusts
  • Air Temp 79°f
  • Sea Pressure 1018.3mb
  • Fred Howard Park, Fl
  • Fred Howard Park, Fl

More Historic Weather Station data

Upgrade to MSW Pro to gain access to the past 30 days of data for over 8000 Wavebouys and Weather Stations around the globe.

Join Pro

Comparision Forecast

View Surf forecast
   
Thu 06/22 1:54am 8 11 mph 1018.3mb 79f
1:48am 8 10 mph 1018.4mb 79f
12:54am 8 10 mph 1018.9mb 79f
12:48am 9 10 mph 1019mb 79f
Wed 06/21 11:54pm 13 17 mph 1019.1mb 80f
10:54pm 10 13 mph 1018.2mb 80f
10:48pm 10 13 mph 1018.1mb 80f
9:54pm 5 6 mph 1017.5mb 81f
9:48pm 6 8 mph 1017.6mb 81f
8:54pm 11 14 mph 1017mb 86f
8:48pm 10 13 mph 1017mb 86f
7:54pm 10 13 mph 1017mb 86f
7:48pm 10 13 mph 1017mb 86f
6:54pm 15 20 mph 1016.3mb 86f
6:48pm 15 18 mph 1016.2mb 86f
5:54pm 21 25 mph 1015.8mb 85f
4:54pm 17 20 mph 1015.9mb 86f
4:48pm 15 18 mph 1015.9mb 86f
3:54pm 17 21 mph 1016mb 85f
3:48pm 16 18 mph 1016mb 85f
2:54pm 14 17 mph 1016.3mb 85f
2:48pm 15 18 mph 1016.3mb 87f
1:54pm 15 18 mph 1016.5mb 87f
1:48pm 15 18 mph 1016.7mb 87f
12:54pm 11 15 mph 1017mb 85f
12:48pm 14 18 mph 1017mb 85f
11:54am 16 21 mph 1017mb 84f
11:48am 16 21 mph 1017mb 84f
10:54am 15 20 mph 1017mb 83f
10:48am 16 21 mph 1016.9mb 83f
9:54am 15 18 mph 1016.8mb 82f
8:54am 14 17 mph 1016.5mb 80f
8:48am 11 14 mph 1016.5mb 80f
7:54am 11 14 mph 1016mb 79f
7:48am 13 16 mph 1016mb 79f
6:54am 10 13 mph 1015.5mb 78f
6:48am 10 13 mph 1015.5mb 78f
5:54am 9 11 mph 1015.4mb 78f
5:48am 9 11 mph 1015.4mb 78f
4:54am 10 13 mph 1015.2mb 78f
4:48am 10 13 mph 1015.2mb 78f
3:54am 10 13 mph 1015mb 78f
3:48am 10 13 mph 1014.9mb 78f
2:54am 13 15 mph 1015.4mb 78f
2:48am 11 15 mph 1015.5mb 78f
1:54am 10 13 mph 1015.6mb 79f
1:48am 11 14 mph 1015.8mb 79f
12:54am 9 11 mph 1016.3mb 79f
12:48am 9 11 mph 1016.4mb 79f
Tue 06/20 11:54pm 9 11 mph 1016.6mb 79f
11:48pm 8 11 mph 1016.5mb 79f
10:54pm 3 5 mph 1016.3mb 79f
10:48pm 2 3 mph 1016.2mb 79f
9:54pm 5 7 mph 1015.8mb 84f
9:48pm 8 9 mph 1015.7mb 79f
8:54pm 2 3 mph 1015.1mb 78f
8:48pm 2 2 mph 1015.1mb 78f
7:54pm 8 9 mph 1014.6mb 84f
7:48pm 6 7 mph 1014.5mb 84f
6:54pm 5 6 mph 1014.1mb 87f
6:48pm 5 6 mph 1014.1mb 87f
5:54pm 8 9 mph 1014mb 87f
5:48pm 6 7 mph 1014mb 87f
4:54pm 9 11 mph 1014.4mb 87f
4:48pm 9 13 mph 1014.4mb 87f
3:54pm 10 11 mph 1014.7mb 86f
3:48pm 11 15 mph 1014.7mb 86f
2:54pm 11 15 mph 1015.2mb 86f
2:48pm 13 15 mph 1015.3mb 87f
1:54pm 13 15 mph 1015.9mb 85f
1:48pm 15 17 mph 1015.9mb 85f
12:54pm 17 20 mph 1016.4mb 84f
12:48pm 16 20 mph 1016.4mb 84f
11:54am 17 22 mph 1016.8mb 83f
11:48am 17 23 mph 1016.8mb 83f
10:54am 16 22 mph 1016.7mb 82f
10:48am 17 23 mph 1016.6mb 82f
9:54am 17 20 mph 1016.7mb 82f
9:48am 16 22 mph 1016.7mb 81f
8:54am 14 18 mph 1016.5mb 80f
8:48am 11 15 mph 1016.4mb 80f
7:54am 11 15 mph 1016.1mb 78f
7:48am 11 14 mph 1016mb 78f
6:54am 13 16 mph 1015.6mb 78f
6:48am 13 17 mph 1015.6mb 78f
5:54am 11 14 mph 1015.4mb 78f
5:48am 11 15 mph 1015.4mb 78f
4:54am 13 17 mph 1015.3mb 77f
4:48am 11 15 mph 1015.3mb 77f
3:54am 11 15 mph 1015.3mb 77f
3:48am 10 13 mph 1015.3mb 77f
2:54am 11 14 mph 1016mb 77f
2:48am 11 14 mph 1016.1mb 77f
1:54am 10 11 mph 1016.6mb 77f
1:48am 10 13 mph 1016.6mb 77f
12:54am 8 10 mph 1017mb 77f
12:48am 8 10 mph 1017.1mb 77f
Mon 06/19 11:54pm 7 8 mph 1017.5mb 77f
11:48pm 7 8 mph 1017.5mb 77f
10:54pm 8 10 mph 1017.4mb 77f
10:48pm 8 10 mph 1017.3mb 77f
9:54pm 10 13 mph 1016.9mb 76f
9:48pm 10 14 mph 1016.9mb 76f
8:54pm 11 15 mph 1016.6mb 77f
8:48pm 11 13 mph 1016.7mb 77f
7:54pm 10 13 mph 1016.4mb 77f
7:48pm 10 14 mph 1016.4mb 77f
6:54pm 9 11 mph 1016.1mb 77f
6:48pm 10 14 mph 1016.1mb 77f
5:54pm 8 9 mph 1015.8mb 77f
5:48pm 9 11 mph 1015.8mb 77f
4:54pm 2 3 mph 1016mb 76f
4:48pm 3 6 mph 1016mb 76f
3:54pm 17 20 mph 1016.5mb 76f
3:48pm 23 31 mph 1016.3mb 76f
2:54pm 9 11 mph 1015.7mb 84f
2:48pm 10 14 mph 1015.8mb 83f
1:54pm 6 9 mph 1015.6mb 83f
1:48pm 6 8 mph 1015.7mb 83f
12:54pm 9 11 mph 1016.4mb 82f
12:48pm 10 13 mph 1016.5mb 82f
11:54am 8 13 mph 1016.8mb 81f
11:48am 8 10 mph 1016.4mb 81f
10:54am 8 9 mph 1016.7mb 79f
10:48am 8 10 mph 1016.7mb 79f
9:54am 11 14 mph 1016.5mb 78f
9:48am 11 14 mph 1016.4mb 78f
8:54am 11 14 mph 1016.4mb 78f
8:48am 11 14 mph 1016.4mb 78f
7:54am 11 15 mph 1015.5mb 78f
7:48am 10 14 mph 1015.5mb 78f
6:54am 10 14 mph 1014.6mb 78f
6:48am 11 14 mph 1014.5mb 77f